sensor_id;sensor_type;location;lat;lon;timestamp;P1;durP1;ratioP1;P2;durP2;ratioP2
17714;SDS011;8977;50.902;4.314;2023-01-09T00:00:08;2.27;;;1.10;;
17714;SDS011;8977;50.902;4.314;2023-01-09T00:02:36;1.13;;;1.03;;
17714;SDS011;8977;50.902;4.314;2023-01-09T00:05:04;2.77;;;1.00;;
17714;SDS011;8977;50.902;4.314;2023-01-09T00:07:32;2.37;;;0.93;;
17714;SDS011;8977;50.902;4.314;2023-01-09T00:10:02;1.53;;;1.17;;
17714;SDS011;8977;50.902;4.314;2023-01-09T00:12:30;1.53;;;1.10;;
17714;SDS011;8977;50.902;4.314;2023-01-09T00:14:57;1.63;;;1.00;;
17714;SDS011;8977;50.902;4.314;2023-01-09T00:17:25;2.37;;;1.40;;
17714;SDS011;8977;50.902;4.314;2023-01-09T00:19:52;1.83;;;1.10;;
17714;SDS011;8977;50.902;4.314;2023-01-09T00:22:19;1.60;;;1.17;;
17714;SDS011;8977;50.902;4.314;2023-01-09T00:24:46;1.70;;;1.30;;
17714;SDS011;8977;50.902;4.314;2023-01-09T00:27:13;1.40;;;1.07;;
17714;SDS011;8977;50.902;4.314;2023-01-09T00:29:40;1.30;;;1.20;;
17714;SDS011;8977;50.902;4.314;2023-01-09T00:32:09;2.07;;;1.00;;
17714;SDS011;8977;50.902;4.314;2023-01-09T00:34:38;2.60;;;1.10;;
17714;SDS011;8977;50.902;4.314;2023-01-09T00:37:04;2.20;;;1.00;;
17714;SDS011;8977;50.902;4.314;2023-01-09T00:39:35;1.07;;;0.90;;
17714;SDS011;8977;50.902;4.314;2023-01-09T00:42:02;1.30;;;1.17;;
17714;SDS011;8977;50.902;4.314;2023-01-09T00:44:31;1.43;;;1.03;;
17714;SDS011;8977;50.902;4.314;2023-01-09T00:47:04;3.87;;;1.20;;
17714;SDS011;8977;50.902;4.314;2023-01-09T00:49:35;2.20;;;1.30;;
17714;SDS011;8977;50.902;4.314;2023-01-09T00:52:04;3.93;;;1.30;;
17714;SDS011;8977;50.902;4.314;2023-01-09T00:54:33;1.63;;;1.10;;
17714;SDS011;8977;50.902;4.314;2023-01-09T00:57:00;1.10;;;1.00;;
17714;SDS011;8977;50.902;4.314;2023-01-09T00:59:27;5.27;;;1.30;;
17714;SDS011;8977;50.902;4.314;2023-01-09T01:01:54;2.23;;;1.53;;
17714;SDS011;8977;50.902;4.314;2023-01-09T01:04:20;3.10;;;1.20;;
17714;SDS011;8977;50.902;4.314;2023-01-09T01:07:06;1.47;;;1.30;;
17714;SDS011;8977;50.902;4.314;2023-01-09T01:09:50;3.17;;;1.10;;
17714;SDS011;8977;50.902;4.314;2023-01-09T01:12:17;2.77;;;1.20;;
17714;SDS011;8977;50.902;4.314;2023-01-09T01:14:44;2.90;;;0.87;;
17714;SDS011;8977;50.902;4.314;2023-01-09T01:17:11;2.43;;;1.10;;
17714;SDS011;8977;50.902;4.314;2023-01-09T01:19:37;2.97;;;1.10;;
17714;SDS011;8977;50.902;4.314;2023-01-09T01:22:07;1.30;;;1.00;;
17714;SDS011;8977;50.902;4.314;2023-01-09T01:24:33;2.70;;;1.10;;
17714;SDS011;8977;50.902;4.314;2023-01-09T01:27:00;3.00;;;1.33;;
17714;SDS011;8977;50.902;4.314;2023-01-09T01:29:27;2.53;;;1.33;;
17714;SDS011;8977;50.902;4.314;2023-01-09T01:31:54;3.03;;;1.00;;
17714;SDS011;8977;50.902;4.314;2023-01-09T01:34:21;2.17;;;1.20;;
17714;SDS011;8977;50.902;4.314;2023-01-09T01:36:48;3.10;;;1.20;;
17714;SDS011;8977;50.902;4.314;2023-01-09T01:39:16;2.40;;;1.10;;
17714;SDS011;8977;50.902;4.314;2023-01-09T01:41:45;3.50;;;1.20;;
17714;SDS011;8977;50.902;4.314;2023-01-09T01:47:12;2.80;;;1.23;;
17714;SDS011;8977;50.902;4.314;2023-01-09T01:49:39;3.43;;;0.90;;
17714;SDS011;8977;50.902;4.314;2023-01-09T01:52:06;2.80;;;1.20;;
17714;SDS011;8977;50.902;4.314;2023-01-09T01:54:34;3.80;;;1.10;;
17714;SDS011;8977;50.902;4.314;2023-01-09T01:57:01;2.40;;;1.00;;
17714;SDS011;8977;50.902;4.314;2023-01-09T01:59:31;2.83;;;1.13;;
17714;SDS011;8977;50.902;4.314;2023-01-09T02:02:03;1.47;;;1.00;;
17714;SDS011;8977;50.902;4.314;2023-01-09T02:04:31;2.67;;;1.30;;
17714;SDS011;8977;50.902;4.314;2023-01-09T02:07:01;3.10;;;1.20;;
17714;SDS011;8977;50.902;4.314;2023-01-09T02:09:32;4.97;;;1.17;;
17714;SDS011;8977;50.902;4.314;2023-01-09T02:12:01;2.00;;;1.20;;
17714;SDS011;8977;50.902;4.314;2023-01-09T02:14:28;1.53;;;0.90;;
17714;SDS011;8977;50.902;4.314;2023-01-09T02:16:59;4.23;;;1.00;;
17714;SDS011;8977;50.902;4.314;2023-01-09T02:19:40;2.63;;;1.10;;
17714;SDS011;8977;50.902;4.314;2023-01-09T02:22:25;3.43;;;1.37;;
17714;SDS011;8977;50.902;4.314;2023-01-09T02:25:06;3.27;;;0.90;;
17714;SDS011;8977;50.902;4.314;2023-01-09T02:27:56;4.47;;;1.23;;
17714;SDS011;8977;50.902;4.314;2023-01-09T02:30:58;2.93;;;1.30;;
17714;SDS011;8977;50.902;4.314;2023-01-09T02:33:35;3.20;;;1.03;;
17714;SDS011;8977;50.902;4.314;2023-01-09T02:36:16;3.23;;;1.20;;
17714;SDS011;8977;50.902;4.314;2023-01-09T02:38:51;5.97;;;1.40;;
17714;SDS011;8977;50.902;4.314;2023-01-09T02:41:26;3.50;;;1.27;;
17714;SDS011;8977;50.902;4.314;2023-01-09T02:44:01;3.03;;;1.20;;
17714;SDS011;8977;50.902;4.314;2023-01-09T02:46:42;3.73;;;1.30;;
17714;SDS011;8977;50.902;4.314;2023-01-09T02:49:09;2.20;;;0.97;;
17714;SDS011;8977;50.902;4.314;2023-01-09T02:51:38;4.23;;;1.10;;
17714;SDS011;8977;50.902;4.314;2023-01-09T02:54:19;2.90;;;1.27;;
17714;SDS011;8977;50.902;4.314;2023-01-09T02:59:46;7.20;;;1.20;;
17714;SDS011;8977;50.902;4.314;2023-01-09T03:02:29;2.40;;;1.30;;
17714;SDS011;8977;50.902;4.314;2023-01-09T03:05:12;3.80;;;1.10;;
17714;SDS011;8977;50.902;4.314;2023-01-09T03:07:49;3.37;;;1.20;;
17714;SDS011;8977;50.902;4.314;2023-01-09T03:10:24;2.23;;;1.10;;
17714;SDS011;8977;50.902;4.314;2023-01-09T03:12:56;2.33;;;1.30;;
17714;SDS011;8977;50.902;4.314;2023-01-09T03:15:27;5.43;;;1.43;;
17714;SDS011;8977;50.902;4.314;2023-01-09T03:17:59;2.47;;;1.27;;
17714;SDS011;8977;50.902;4.314;2023-01-09T03:20:26;5.13;;;1.33;;
17714;SDS011;8977;50.902;4.314;2023-01-09T03:22:55;6.57;;;1.43;;
17714;SDS011;8977;50.902;4.314;2023-01-09T03:25:23;4.10;;;1.13;;
17714;SDS011;8977;50.902;4.314;2023-01-09T03:27:51;5.07;;;1.60;;
17714;SDS011;8977;50.902;4.314;2023-01-09T03:30:21;4.37;;;1.00;;
17714;SDS011;8977;50.902;4.314;2023-01-09T03:32:49;4.10;;;1.10;;
17714;SDS011;8977;50.902;4.314;2023-01-09T03:35:17;4.03;;;1.40;;
17714;SDS011;8977;50.902;4.314;2023-01-09T03:37:44;6.13;;;1.40;;
17714;SDS011;8977;50.902;4.314;2023-01-09T03:40:11;4.33;;;1.37;;
17714;SDS011;8977;50.902;4.314;2023-01-09T03:42:38;5.63;;;1.07;;
17714;SDS011;8977;50.902;4.314;2023-01-09T03:45:07;4.80;;;1.40;;
17714;SDS011;8977;50.902;4.314;2023-01-09T03:47:34;6.23;;;1.67;;
17714;SDS011;8977;50.902;4.314;2023-01-09T03:50:01;3.90;;;1.30;;
17714;SDS011;8977;50.902;4.314;2023-01-09T03:52:30;8.00;;;2.07;;
17714;SDS011;8977;50.902;4.314;2023-01-09T03:54:56;6.87;;;1.40;;
17714;SDS011;8977;50.902;4.314;2023-01-09T03:57:23;3.67;;;1.20;;
17714;SDS011;8977;50.902;4.314;2023-01-09T03:59:50;4.37;;;1.20;;
17714;SDS011;8977;50.902;4.314;2023-01-09T04:02:17;3.50;;;1.20;;
17714;SDS011;8977;50.902;4.314;2023-01-09T04:04:44;3.30;;;1.37;;
17714;SDS011;8977;50.902;4.314;2023-01-09T04:07:11;5.43;;;1.23;;
17714;SDS011;8977;50.902;4.314;2023-01-09T04:09:39;4.17;;;1.30;;
17714;SDS011;8977;50.902;4.314;2023-01-09T04:12:06;7.53;;;1.50;;
17714;SDS011;8977;50.902;4.314;2023-01-09T04:14:32;5.13;;;1.43;;
17714;SDS011;8977;50.902;4.314;2023-01-09T04:16:59;4.67;;;1.90;;
17714;SDS011;8977;50.902;4.314;2023-01-09T04:19:26;6.53;;;1.43;;
17714;SDS011;8977;50.902;4.314;2023-01-09T04:21:53;5.47;;;1.77;;
17714;SDS011;8977;50.902;4.314;2023-01-09T04:24:20;3.47;;;1.23;;
17714;SDS011;8977;50.902;4.314;2023-01-09T04:26:48;6.87;;;1.57;;
17714;SDS011;8977;50.902;4.314;2023-01-09T04:29:15;4.83;;;1.70;;
17714;SDS011;8977;50.902;4.314;2023-01-09T04:31:41;9.40;;;1.73;;
17714;SDS011;8977;50.902;4.314;2023-01-09T04:34:08;6.87;;;1.60;;
17714;SDS011;8977;50.902;4.314;2023-01-09T04:36:35;9.97;;;2.47;;
17714;SDS011;8977;50.902;4.314;2023-01-09T04:39:02;6.87;;;1.93;;
17714;SDS011;8977;50.902;4.314;2023-01-09T04:41:29;6.07;;;2.07;;
17714;SDS011;8977;50.902;4.314;2023-01-09T04:44:11;7.77;;;2.00;;
17714;SDS011;8977;50.902;4.314;2023-01-09T04:46:38;4.27;;;1.80;;
17714;SDS011;8977;50.902;4.314;2023-01-09T04:49:05;8.83;;;1.63;;
17714;SDS011;8977;50.902;4.314;2023-01-09T04:51:32;5.57;;;1.47;;
17714;SDS011;8977;50.902;4.314;2023-01-09T04:53:59;7.23;;;1.80;;
17714;SDS011;8977;50.902;4.314;2023-01-09T04:56:26;6.70;;;1.83;;
17714;SDS011;8977;50.902;4.314;2023-01-09T04:58:53;4.20;;;1.73;;
17714;SDS011;8977;50.902;4.314;2023-01-09T05:01:21;6.83;;;1.97;;
17714;SDS011;8977;50.902;4.314;2023-01-09T05:03:48;8.07;;;2.23;;
17714;SDS011;8977;50.902;4.314;2023-01-09T05:06:15;9.20;;;1.73;;
17714;SDS011;8977;50.902;4.314;2023-01-09T05:08:42;4.83;;;1.43;;
17714;SDS011;8977;50.902;4.314;2023-01-09T05:11:08;6.87;;;2.00;;
17714;SDS011;8977;50.902;4.314;2023-01-09T05:13:35;5.73;;;1.40;;
17714;SDS011;8977;50.902;4.314;2023-01-09T05:16:02;5.87;;;1.50;;
17714;SDS011;8977;50.902;4.314;2023-01-09T05:18:30;6.67;;;1.63;;
17714;SDS011;8977;50.902;4.314;2023-01-09T05:20:57;4.23;;;1.40;;
17714;SDS011;8977;50.902;4.314;2023-01-09T05:23:24;5.20;;;1.60;;
17714;SDS011;8977;50.902;4.314;2023-01-09T05:25:51;6.20;;;1.60;;
17714;SDS011;8977;50.902;4.314;2023-01-09T05:28:20;5.27;;;1.37;;
17714;SDS011;8977;50.902;4.314;2023-01-09T05:30:47;8.27;;;2.33;;
17714;SDS011;8977;50.902;4.314;2023-01-09T05:33:14;7.00;;;1.80;;
17714;SDS011;8977;50.902;4.314;2023-01-09T05:35:42;7.43;;;1.40;;
17714;SDS011;8977;50.902;4.314;2023-01-09T05:38:09;6.73;;;1.67;;
17714;SDS011;8977;50.902;4.314;2023-01-09T05:40:36;5.23;;;1.63;;
17714;SDS011;8977;50.902;4.314;2023-01-09T05:43:03;6.17;;;1.53;;
17714;SDS011;8977;50.902;4.314;2023-01-09T05:45:30;5.50;;;1.47;;
17714;SDS011;8977;50.902;4.314;2023-01-09T05:47:57;7.00;;;1.80;;
17714;SDS011;8977;50.902;4.314;2023-01-09T05:50:23;5.37;;;1.27;;
17714;SDS011;8977;50.902;4.314;2023-01-09T05:52:51;4.70;;;1.50;;
17714;SDS011;8977;50.902;4.314;2023-01-09T05:55:18;5.27;;;1.87;;
17714;SDS011;8977;50.902;4.314;2023-01-09T05:57:45;3.50;;;1.30;;
17714;SDS011;8977;50.902;4.314;2023-01-09T06:00:12;5.53;;;1.40;;
17714;SDS011;8977;50.902;4.314;2023-01-09T06:02:45;2.97;;;1.63;;
17714;SDS011;8977;50.902;4.314;2023-01-09T06:05:12;4.57;;;1.50;;
17714;SDS011;8977;50.902;4.314;2023-01-09T06:07:39;6.93;;;1.53;;
17714;SDS011;8977;50.902;4.314;2023-01-09T06:10:08;5.63;;;1.70;;
17714;SDS011;8977;50.902;4.314;2023-01-09T06:12:37;4.00;;;1.30;;
17714;SDS011;8977;50.902;4.314;2023-01-09T06:15:04;4.47;;;2.13;;
17714;SDS011;8977;50.902;4.314;2023-01-09T06:17:31;5.07;;;1.60;;
17714;SDS011;8977;50.902;4.314;2023-01-09T06:19:58;6.97;;;1.67;;
17714;SDS011;8977;50.902;4.314;2023-01-09T06:22:25;3.37;;;1.20;;
17714;SDS011;8977;50.902;4.314;2023-01-09T06:24:52;4.97;;;1.30;;
17714;SDS011;8977;50.902;4.314;2023-01-09T06:27:20;4.87;;;1.43;;
17714;SDS011;8977;50.902;4.314;2023-01-09T06:29:47;2.90;;;1.23;;
17714;SDS011;8977;50.902;4.314;2023-01-09T06:32:14;3.37;;;1.30;;
17714;SDS011;8977;50.902;4.314;2023-01-09T06:34:41;3.07;;;1.17;;
17714;SDS011;8977;50.902;4.314;2023-01-09T06:37:07;3.50;;;1.13;;
17714;SDS011;8977;50.902;4.314;2023-01-09T06:39:34;3.23;;;1.30;;
17714;SDS011;8977;50.902;4.314;2023-01-09T06:42:01;4.10;;;1.40;;
17714;SDS011;8977;50.902;4.314;2023-01-09T06:44:29;3.60;;;1.20;;
17714;SDS011;8977;50.902;4.314;2023-01-09T06:46:57;3.47;;;1.27;;
17714;SDS011;8977;50.902;4.314;2023-01-09T06:49:24;3.37;;;1.30;;
17714;SDS011;8977;50.902;4.314;2023-01-09T06:51:50;4.37;;;1.43;;
17714;SDS011;8977;50.902;4.314;2023-01-09T06:54:17;5.33;;;1.10;;
17714;SDS011;8977;50.902;4.314;2023-01-09T06:56:45;4.23;;;1.40;;
17714;SDS011;8977;50.902;4.314;2023-01-09T06:59:12;3.83;;;1.33;;
17714;SDS011;8977;50.902;4.314;2023-01-09T07:01:40;2.47;;;0.87;;
17714;SDS011;8977;50.902;4.314;2023-01-09T07:04:07;3.27;;;0.97;;
17714;SDS011;8977;50.902;4.314;2023-01-09T07:06:34;2.57;;;0.83;;
17714;SDS011;8977;50.902;4.314;2023-01-09T07:09:02;2.70;;;1.10;;
17714;SDS011;8977;50.902;4.314;2023-01-09T07:11:31;5.17;;;1.10;;
17714;SDS011;8977;50.902;4.314;2023-01-09T07:13:58;3.57;;;1.20;;
17714;SDS011;8977;50.902;4.314;2023-01-09T07:16:25;4.43;;;1.13;;
17714;SDS011;8977;50.902;4.314;2023-01-09T07:18:53;2.23;;;0.90;;
17714;SDS011;8977;50.902;4.314;2023-01-09T07:21:20;3.63;;;1.10;;
17714;SDS011;8977;50.902;4.314;2023-01-09T07:23:47;2.23;;;1.10;;
17714;SDS011;8977;50.902;4.314;2023-01-09T07:26:14;1.27;;;1.03;;
17714;SDS011;8977;50.902;4.314;2023-01-09T07:28:40;3.40;;;1.03;;
17714;SDS011;8977;50.902;4.314;2023-01-09T07:31:07;2.40;;;1.10;;
17714;SDS011;8977;50.902;4.314;2023-01-09T07:33:34;3.83;;;1.17;;
17714;SDS011;8977;50.902;4.314;2023-01-09T07:36:03;2.80;;;0.90;;
17714;SDS011;8977;50.902;4.314;2023-01-09T07:38:30;4.13;;;1.10;;
17714;SDS011;8977;50.902;4.314;2023-01-09T07:40:57;3.90;;;1.53;;
17714;SDS011;8977;50.902;4.314;2023-01-09T07:43:23;2.50;;;1.10;;
17714;SDS011;8977;50.902;4.314;2023-01-09T07:45:50;2.37;;;1.00;;
17714;SDS011;8977;50.902;4.314;2023-01-09T07:48:17;2.37;;;0.90;;
17714;SDS011;8977;50.902;4.314;2023-01-09T07:50:44;3.70;;;1.30;;
17714;SDS011;8977;50.902;4.314;2023-01-09T07:53:12;2.63;;;1.10;;
17714;SDS011;8977;50.902;4.314;2023-01-09T07:55:41;4.57;;;1.10;;
17714;SDS011;8977;50.902;4.314;2023-01-09T07:58:08;2.17;;;0.90;;
17714;SDS011;8977;50.902;4.314;2023-01-09T08:00:35;4.97;;;1.17;;
17714;SDS011;8977;50.902;4.314;2023-01-09T08:03:02;2.83;;;1.20;;
17714;SDS011;8977;50.902;4.314;2023-01-09T08:05:29;4.93;;;1.10;;
17714;SDS011;8977;50.902;4.314;2023-01-09T08:07:55;3.87;;;1.13;;
17714;SDS011;8977;50.902;4.314;2023-01-09T08:10:24;2.60;;;1.27;;
17714;SDS011;8977;50.902;4.314;2023-01-09T08:12:53;3.23;;;1.27;;
17714;SDS011;8977;50.902;4.314;2023-01-09T08:15:20;4.30;;;1.40;;
17714;SDS011;8977;50.902;4.314;2023-01-09T08:17:47;4.60;;;1.37;;
17714;SDS011;8977;50.902;4.314;2023-01-09T08:20:14;4.37;;;1.20;;
17714;SDS011;8977;50.902;4.314;2023-01-09T08:22:43;6.43;;;1.60;;
17714;SDS011;8977;50.902;4.314;2023-01-09T08:25:13;5.83;;;1.43;;
17714;SDS011;8977;50.902;4.314;2023-01-09T08:27:42;3.23;;;1.20;;
17714;SDS011;8977;50.902;4.314;2023-01-09T08:30:09;3.17;;;1.10;;
17714;SDS011;8977;50.902;4.314;2023-01-09T08:32:37;2.10;;;1.20;;
17714;SDS011;8977;50.902;4.314;2023-01-09T08:35:04;5.13;;;1.20;;
17714;SDS011;8977;50.902;4.314;2023-01-09T08:37:32;5.33;;;1.30;;
17714;SDS011;8977;50.902;4.314;2023-01-09T08:39:58;4.10;;;1.00;;
17714;SDS011;8977;50.902;4.314;2023-01-09T08:42:25;4.17;;;1.10;;
17714;SDS011;8977;50.902;4.314;2023-01-09T08:45:11;3.73;;;1.47;;
17714;SDS011;8977;50.902;4.314;2023-01-09T08:47:55;3.53;;;1.73;;
17714;SDS011;8977;50.902;4.314;2023-01-09T08:50:22;2.33;;;1.10;;
17714;SDS011;8977;50.902;4.314;2023-01-09T08:52:49;2.90;;;1.40;;
17714;SDS011;8977;50.902;4.314;2023-01-09T08:55:16;1.53;;;1.07;;
17714;SDS011;8977;50.902;4.314;2023-01-09T08:57:46;1.60;;;0.90;;
17714;SDS011;8977;50.902;4.314;2023-01-09T09:00:20;2.03;;;0.80;;
17714;SDS011;8977;50.902;4.314;2023-01-09T09:02:49;1.93;;;1.30;;
17714;SDS011;8977;50.902;4.314;2023-01-09T09:05:17;1.33;;;0.70;;
17714;SDS011;8977;50.902;4.314;2023-01-09T09:07:45;2.03;;;0.70;;
17714;SDS011;8977;50.902;4.314;2023-01-09T09:10:13;3.10;;;1.00;;
17714;SDS011;8977;50.902;4.314;2023-01-09T09:12:40;3.90;;;0.90;;
17714;SDS011;8977;50.902;4.314;2023-01-09T09:15:08;2.83;;;0.70;;
17714;SDS011;8977;50.902;4.314;2023-01-09T09:17:42;2.00;;;0.67;;
17714;SDS011;8977;50.902;4.314;2023-01-09T09:20:09;1.00;;;0.60;;
17714;SDS011;8977;50.902;4.314;2023-01-09T09:22:37;1.30;;;0.63;;
17714;SDS011;8977;50.902;4.314;2023-01-09T09:25:04;3.03;;;0.80;;
17714;SDS011;8977;50.902;4.314;2023-01-09T09:27:31;1.43;;;0.90;;
17714;SDS011;8977;50.902;4.314;2023-01-09T09:30:00;2.50;;;0.87;;
17714;SDS011;8977;50.902;4.314;2023-01-09T09:32:27;2.17;;;1.00;;
17714;SDS011;8977;50.902;4.314;2023-01-09T09:34:56;2.20;;;0.77;;
17714;SDS011;8977;50.902;4.314;2023-01-09T09:37:23;2.10;;;0.90;;
17714;SDS011;8977;50.902;4.314;2023-01-09T09:39:50;1.47;;;0.80;;
17714;SDS011;8977;50.902;4.314;2023-01-09T09:42:30;1.50;;;0.70;;
17714;SDS011;8977;50.902;4.314;2023-01-09T09:45:35;1.60;;;0.80;;
17714;SDS011;8977;50.902;4.314;2023-01-09T09:48:13;1.67;;;0.80;;
17714;SDS011;8977;50.902;4.314;2023-01-09T09:50:59;1.37;;;1.00;;
17714;SDS011;8977;50.902;4.314;2023-01-09T09:53:42;1.67;;;0.90;;
17714;SDS011;8977;50.902;4.314;2023-01-09T09:56:16;2.87;;;1.17;;
17714;SDS011;8977;50.902;4.314;2023-01-09T09:58:47;2.20;;;0.80;;
17714;SDS011;8977;50.902;4.314;2023-01-09T10:01:17;1.37;;;0.80;;
17714;SDS011;8977;50.902;4.314;2023-01-09T10:03:49;2.70;;;1.00;;
17714;SDS011;8977;50.902;4.314;2023-01-09T10:06:21;3.43;;;0.97;;
17714;SDS011;8977;50.902;4.314;2023-01-09T10:08:56;1.33;;;0.73;;
17714;SDS011;8977;50.902;4.314;2023-01-09T10:11:29;2.87;;;1.03;;
17714;SDS011;8977;50.902;4.314;2023-01-09T10:14:02;3.43;;;0.90;;
17714;SDS011;8977;50.902;4.314;2023-01-09T10:16:37;2.33;;;1.00;;
17714;SDS011;8977;50.902;4.314;2023-01-09T10:19:17;1.70;;;1.00;;
17714;SDS011;8977;50.902;4.314;2023-01-09T10:22:00;2.90;;;1.10;;
17714;SDS011;8977;50.902;4.314;2023-01-09T10:24:40;0.93;;;0.70;;
17714;SDS011;8977;50.902;4.314;2023-01-09T10:27:16;1.97;;;0.87;;
17714;SDS011;8977;50.902;4.314;2023-01-09T10:29:53;2.13;;;1.00;;
17714;SDS011;8977;50.902;4.314;2023-01-09T10:32:32;2.50;;;0.80;;
17714;SDS011;8977;50.902;4.314;2023-01-09T10:35:19;2.33;;;0.80;;
17714;SDS011;8977;50.902;4.314;2023-01-09T10:38:07;3.70;;;0.90;;
17714;SDS011;8977;50.902;4.314;2023-01-09T10:40:39;3.00;;;0.90;;
17714;SDS011;8977;50.902;4.314;2023-01-09T10:43:11;0.93;;;0.77;;
17714;SDS011;8977;50.902;4.314;2023-01-09T10:45:46;0.70;;;0.70;;
17714;SDS011;8977;50.902;4.314;2023-01-09T10:48:18;1.20;;;0.80;;
17714;SDS011;8977;50.902;4.314;2023-01-09T10:50:51;2.03;;;0.90;;
17714;SDS011;8977;50.902;4.314;2023-01-09T10:53:23;1.97;;;0.90;;
17714;SDS011;8977;50.902;4.314;2023-01-09T10:55:54;1.17;;;0.80;;
17714;SDS011;8977;50.902;4.314;2023-01-09T10:58:26;1.37;;;0.83;;
17714;SDS011;8977;50.902;4.314;2023-01-09T11:00:53;1.80;;;0.80;;
17714;SDS011;8977;50.902;4.314;2023-01-09T11:03:25;3.63;;;1.20;;
17714;SDS011;8977;50.902;4.314;2023-01-09T11:05:55;1.93;;;1.20;;
17714;SDS011;8977;50.902;4.314;2023-01-09T11:08:25;3.83;;;1.00;;
17714;SDS011;8977;50.902;4.314;2023-01-09T11:10:56;2.27;;;1.20;;
17714;SDS011;8977;50.902;4.314;2023-01-09T11:13:25;1.43;;;0.90;;
17714;SDS011;8977;50.902;4.314;2023-01-09T11:15:58;2.80;;;0.90;;
17714;SDS011;8977;50.902;4.314;2023-01-09T11:18:30;2.80;;;1.30;;
17714;SDS011;8977;50.902;4.314;2023-01-09T11:21:12;1.50;;;1.17;;
17714;SDS011;8977;50.902;4.314;2023-01-09T11:23:51;4.13;;;1.60;;
17714;SDS011;8977;50.902;4.314;2023-01-09T11:26:22;1.67;;;1.37;;
17714;SDS011;8977;50.902;4.314;2023-01-09T11:29:03;2.57;;;1.43;;
17714;SDS011;8977;50.902;4.314;2023-01-09T11:31:32;3.50;;;1.27;;
17714;SDS011;8977;50.902;4.314;2023-01-09T11:33:59;4.67;;;1.70;;
17714;SDS011;8977;50.902;4.314;2023-01-09T11:36:26;2.70;;;1.40;;
17714;SDS011;8977;50.902;4.314;2023-01-09T11:38:55;3.20;;;1.60;;
17714;SDS011;8977;50.902;4.314;2023-01-09T11:41:24;3.97;;;1.63;;
17714;SDS011;8977;50.902;4.314;2023-01-09T11:43:54;2.10;;;1.23;;
17714;SDS011;8977;50.902;4.314;2023-01-09T11:46:30;1.93;;;1.43;;
17714;SDS011;8977;50.902;4.314;2023-01-09T11:48:59;2.17;;;1.57;;
17714;SDS011;8977;50.902;4.314;2023-01-09T11:51:30;2.83;;;1.77;;
17714;SDS011;8977;50.902;4.314;2023-01-09T11:54:06;2.50;;;1.40;;
17714;SDS011;8977;50.902;4.314;2023-01-09T11:56:42;3.47;;;1.77;;
17714;SDS011;8977;50.902;4.314;2023-01-09T11:59:10;2.67;;;1.47;;
17714;SDS011;8977;50.902;4.314;2023-01-09T12:01:54;3.63;;;1.40;;
17714;SDS011;8977;50.902;4.314;2023-01-09T12:04:41;3.70;;;1.70;;
17714;SDS011;8977;50.902;4.314;2023-01-09T12:07:27;3.27;;;1.50;;
17714;SDS011;8977;50.902;4.314;2023-01-09T12:10:20;1.93;;;1.20;;
17714;SDS011;8977;50.902;4.314;2023-01-09T12:12:56;5.73;;;1.70;;
17714;SDS011;8977;50.902;4.314;2023-01-09T12:15:29;3.80;;;1.43;;
17714;SDS011;8977;50.902;4.314;2023-01-09T12:18:13;4.67;;;1.60;;
17714;SDS011;8977;50.902;4.314;2023-01-09T12:20:52;3.87;;;1.53;;
17714;SDS011;8977;50.902;4.314;2023-01-09T12:23:48;5.27;;;1.50;;
17714;SDS011;8977;50.902;4.314;2023-01-09T12:26:29;5.53;;;1.33;;
17714;SDS011;8977;50.902;4.314;2023-01-09T12:31:59;4.30;;;1.90;;
17714;SDS011;8977;50.902;4.314;2023-01-09T12:34:54;5.47;;;1.83;;
17714;SDS011;8977;50.902;4.314;2023-01-09T12:37:41;5.10;;;1.90;;
17714;SDS011;8977;50.902;4.314;2023-01-09T12:40:21;4.27;;;2.10;;
17714;SDS011;8977;50.902;4.314;2023-01-09T12:43:05;5.27;;;2.40;;
17714;SDS011;8977;50.902;4.314;2023-01-09T12:45:47;6.10;;;2.37;;
17714;SDS011;8977;50.902;4.314;2023-01-09T12:48:36;2.70;;;2.10;;
17714;SDS011;8977;50.902;4.314;2023-01-09T12:51:27;8.23;;;2.23;;
17714;SDS011;8977;50.902;4.314;2023-01-09T12:54:01;9.30;;;3.07;;
17714;SDS011;8977;50.902;4.314;2023-01-09T12:56:32;6.73;;;2.43;;
17714;SDS011;8977;50.902;4.314;2023-01-09T12:59:05;8.27;;;2.90;;
17714;SDS011;8977;50.902;4.314;2023-01-09T13:01:45;3.63;;;2.13;;
17714;SDS011;8977;50.902;4.314;2023-01-09T13:04:16;5.20;;;2.60;;
17714;SDS011;8977;50.902;4.314;2023-01-09T13:06:50;5.43;;;2.50;;
17714;SDS011;8977;50.902;4.314;2023-01-09T13:09:23;7.67;;;2.67;;
17714;SDS011;8977;50.902;4.314;2023-01-09T13:11:54;8.23;;;2.63;;
17714;SDS011;8977;50.902;4.314;2023-01-09T13:14:36;5.17;;;2.33;;
17714;SDS011;8977;50.902;4.314;2023-01-09T13:17:13;8.30;;;3.47;;
17714;SDS011;8977;50.902;4.314;2023-01-09T13:19:44;5.57;;;2.23;;
17714;SDS011;8977;50.902;4.314;2023-01-09T13:22:12;5.03;;;2.20;;
17714;SDS011;8977;50.902;4.314;2023-01-09T13:24:46;6.70;;;2.30;;
17714;SDS011;8977;50.902;4.314;2023-01-09T13:27:31;9.93;;;3.00;;
17714;SDS011;8977;50.902;4.314;2023-01-09T13:30:14;7.27;;;2.70;;
17714;SDS011;8977;50.902;4.314;2023-01-09T13:32:48;6.47;;;2.03;;
17714;SDS011;8977;50.902;4.314;2023-01-09T13:35:23;5.17;;;2.07;;
17714;SDS011;8977;50.902;4.314;2023-01-09T13:37:50;10.47;;;2.20;;
17714;SDS011;8977;50.902;4.314;2023-01-09T13:40:25;6.27;;;2.23;;
17714;SDS011;8977;50.902;4.314;2023-01-09T13:42:55;7.67;;;2.30;;
17714;SDS011;8977;50.902;4.314;2023-01-09T13:45:24;4.90;;;2.00;;
17714;SDS011;8977;50.902;4.314;2023-01-09T13:48:16;6.57;;;2.10;;
17714;SDS011;8977;50.902;4.314;2023-01-09T13:50:50;9.13;;;2.20;;
17714;SDS011;8977;50.902;4.314;2023-01-09T13:56:11;5.37;;;1.97;;
17714;SDS011;8977;50.902;4.314;2023-01-09T13:58:56;8.17;;;2.17;;
17714;SDS011;8977;50.902;4.314;2023-01-09T14:01:44;7.87;;;2.30;;
17714;SDS011;8977;50.902;4.314;2023-01-09T14:07:12;7.87;;;2.40;;
17714;SDS011;8977;50.902;4.314;2023-01-09T14:09:50;6.20;;;2.40;;
17714;SDS011;8977;50.902;4.314;2023-01-09T14:12:21;4.73;;;2.40;;
17714;SDS011;8977;50.902;4.314;2023-01-09T14:14:48;2.83;;;2.00;;
17714;SDS011;8977;50.902;4.314;2023-01-09T14:17:22;8.80;;;2.30;;
17714;SDS011;8977;50.902;4.314;2023-01-09T14:19:56;5.90;;;2.00;;
17714;SDS011;8977;50.902;4.314;2023-01-09T14:22:25;6.37;;;2.13;;
17714;SDS011;8977;50.902;4.314;2023-01-09T14:24:59;4.87;;;2.53;;
17714;SDS011;8977;50.902;4.314;2023-01-09T14:30:32;6.23;;;2.67;;
17714;SDS011;8977;50.902;4.314;2023-01-09T14:33:02;9.17;;;2.83;;
17714;SDS011;8977;50.902;4.314;2023-01-09T14:35:34;7.13;;;2.90;;
17714;SDS011;8977;50.902;4.314;2023-01-09T14:38:09;9.30;;;3.37;;
17714;SDS011;8977;50.902;4.314;2023-01-09T14:40:49;6.80;;;3.63;;
17714;SDS011;8977;50.902;4.314;2023-01-09T14:43:22;9.68;;;3.30;;
17714;SDS011;8977;50.902;4.314;2023-01-09T14:45:54;6.03;;;2.70;;
17714;SDS011;8977;50.902;4.314;2023-01-09T14:48:27;8.03;;;2.67;;
17714;SDS011;8977;50.902;4.314;2023-01-09T14:50:57;7.67;;;2.73;;
17714;SDS011;8977;50.902;4.314;2023-01-09T14:53:24;4.73;;;2.40;;
17714;SDS011;8977;50.902;4.314;2023-01-09T14:55:55;5.57;;;2.20;;
17714;SDS011;8977;50.902;4.314;2023-01-09T14:58:23;8.30;;;2.40;;
17714;SDS011;8977;50.902;4.314;2023-01-09T15:00:52;6.17;;;2.00;;
17714;SDS011;8977;50.902;4.314;2023-01-09T15:03:23;4.53;;;2.07;;
17714;SDS011;8977;50.902;4.314;2023-01-09T15:05:54;8.93;;;2.07;;
17714;SDS011;8977;50.902;4.314;2023-01-09T15:08:21;5.57;;;2.20;;
17714;SDS011;8977;50.902;4.314;2023-01-09T15:10:51;5.60;;;2.03;;
17714;SDS011;8977;50.902;4.314;2023-01-09T15:13:25;6.47;;;2.00;;
17714;SDS011;8977;50.902;4.314;2023-01-09T15:15:57;6.00;;;1.87;;
17714;SDS011;8977;50.902;4.314;2023-01-09T15:18:28;6.60;;;2.17;;
17714;SDS011;8977;50.902;4.314;2023-01-09T15:20:58;5.70;;;2.50;;
17714;SDS011;8977;50.902;4.314;2023-01-09T15:23:27;7.87;;;2.17;;
17714;SDS011;8977;50.902;4.314;2023-01-09T15:25:55;4.37;;;2.20;;
17714;SDS011;8977;50.902;4.314;2023-01-09T15:28:24;4.73;;;2.30;;
17714;SDS011;8977;50.902;4.314;2023-01-09T15:30:53;8.30;;;3.10;;
17714;SDS011;8977;50.902;4.314;2023-01-09T15:33:23;4.80;;;2.50;;
17714;SDS011;8977;50.902;4.314;2023-01-09T15:35:51;4.93;;;2.03;;
17714;SDS011;8977;50.902;4.314;2023-01-09T15:38:24;4.70;;;2.10;;
17714;SDS011;8977;50.902;4.314;2023-01-09T15:40:56;4.53;;;2.37;;